Terminal Aerodrome Forecast
Issued by NWS

Home | Current Version | Previous Version | Text Only | Print | Product List | Glossary On
Versions: 1 2 3 4 5 6 7 8 9 10 11 12 13 14 15 16 17 18 19 20
000
FTUS41 KILN 262300
TAFLCK
TAF
KLCK 262335Z 2700/2724 31008KT P6SM BKN028
     FM270200 31005KT P6SM BKN035
     FM270600 33006KT P6SM SCT030
     FM271000 34007KT P6SM BKN025
     FM271400 33009KT P6SM BKN035
     FM271900 31012G20KT P6SM BKN040=

USA.gov is the U.S. government's official web portal to all federal, state and local government web resources and services.